WetterOnline ( https://www.wetteronline.de )

Wetter aktuell Ueckermünde

Aktuelles Wetter: Ueckermünde (7m)

6-stündlich | Neueste Meldungen
Ortszeit Temperatur Wetter
Di, 20.10. 20:00 9.5° C bewölkt
Di, 20.10. 14:00 10.2° C bedeckt
Di, 20.10. 8:00 5.3° C bedeckt
Di, 20.10. 2:00 5.2° C bedeckt
Mo, 19.10. 20:00 8.5° C bedeckt
Mo, 19.10. 14:00 10.2° C leicht bewölkt
Mo, 19.10. 8:00 4.2° C wolkig
Mo, 19.10. 2:00 4.9° C wolkig
Ortszeit Temperatur Wetter
Mi, 21.10. 1:30 9.7° C bedeckt
Mi, 21.10. 1:20 9.7° C bedeckt
Mi, 21.10. 1:10 9.7° C bedeckt
Mi, 21.10. 1:00 9.6° C bewölkt
Mi, 21.10. 0:50 9.6° C bewölkt
Mi, 21.10. 0:40 9.5° C bedeckt
Mi, 21.10. 0:30 9.3° C bedeckt
Mi, 21.10. 0:00 9.2° C bewölkt
Ortszeit Relative Feuchte Sichtweite
Di, 20.10. 20:00 82% 30 km
Di, 20.10. 14:00 72% 35 km
Di, 20.10. 8:00 96% 10 km
Di, 20.10. 2:00 95% 45 km
Mo, 19.10. 20:00 83% 50 km
Mo, 19.10. 14:00 68% 50 km
Mo, 19.10. 8:00 95% 35 km
Mo, 19.10. 2:00 89% 45 km
Ortszeit Relative Feuchte Sichtweite
Mi, 21.10. 1:30 95% 15 km
Mi, 21.10. 1:20 95% -
Mi, 21.10. 1:10 95% -
Mi, 21.10. 1:00 95% 15 km
Mi, 21.10. 0:50 95% -
Mi, 21.10. 0:40 95% -
Mi, 21.10. 0:30 95% 15 km
Mi, 21.10. 0:00 95% 16 km
Ortszeit Niederschlagsmenge Niederschlagsart
Di, 20.10. 20:00 0.0 l/m2 in 12 Std. -
Di, 20.10. 14:00 0.0 l/m2 in 6 Std. -
Di, 20.10. 8:00 0.0 l/m2 in 12 Std. -
Di, 20.10. 2:00 0.0 l/m2 in 6 Std. -
Mo, 19.10. 20:00 0.0 l/m2 in 12 Std. -
Mo, 19.10. 14:00 0.0 l/m2 in 6 Std. -
Mo, 19.10. 8:00 0.3 l/m2 in 12 Std. Regen
Mo, 19.10. 2:00 0.3 l/m2 in 6 Std. Regen
Ortszeit Niederschlagsmenge Niederschlagsart
Mi, 21.10. 1:30 0.0 l/m2 in 1 Std. -
Mi, 21.10. 1:20 keine Meldung -
Mi, 21.10. 1:10 keine Meldung -
Mi, 21.10. 1:00 0.0 l/m2 in 1 Std. -
Mi, 21.10. 0:50 keine Meldung -
Mi, 21.10. 0:40 keine Meldung -
Mi, 21.10. 0:30 0.0 l/m2 in 1 Std. -
Mi, 21.10. 0:00 0.0 l/m2 in 1 Std. -
Ortszeit Stärke Spitze Richtung
km/h Bft. km/h Grad Sektor
Di, 20.10. 20:00 11 2 39 190° S
Di, 20.10. 14:00 22 4 40 150° SO
Di, 20.10. 8:00 11 2 22 160° S
Di, 20.10. 2:00 9 2 15 190° S
Mo, 19.10. 20:00 7 2 29 210° SW
Mo, 19.10. 14:00 13 3 30 260° W
Mo, 19.10. 8:00 11 2 20 240° SW
Mo, 19.10. 2:00 13 3 37 240° SW
Ortszeit Stärke Spitze Richtung
km/h Bft. km/h Grad Sektor
Mi, 21.10. 1:30 14 3 22 200° S
Mi, 21.10. 1:20 14 3 - 200° S
Mi, 21.10. 1:10 14 3 - 200° S
Mi, 21.10. 1:00 14 3 22 190° S
Mi, 21.10. 0:50 14 3 - 190° S
Mi, 21.10. 0:40 15 3 - 190° S
Mi, 21.10. 0:30 13 3 19 190° S
Mi, 21.10. 0:00 11 2 22 200° S
Ortszeit Untergrenze Bedeckung Gattung
total tief tief mittel hoch
Di, 20.10. 20:00 2400 m 7/8 7/8 - - -
Di, 20.10. 14:00 3900 m 8/8 8/8 - - -
Di, 20.10. 8:00 4800 m 8/8 8/8 - - -
Di, 20.10. 2:00 1800 m 8/8 8/8 - - -
Mo, 19.10. 20:00 1800 m 8/8 8/8 - - -
Mo, 19.10. 14:00 1500 m 2/8 2/8 - - -
Mo, 19.10. 8:00 9000 m 8/8 0/8 - - -
Mo, 19.10. 2:00 2100 m 7/8 5/8 - - -
Ortszeit Bedeckungsgrad in Achtel und Wolkenuntergrenze
Mi, 21.10. 1:30 6(780m) 7(1050m) 8(1290m)
Mi, 21.10. 1:20 6(780m) 7(1050m) 8(1290m)
Mi, 21.10. 1:10 8(750m)
Mi, 21.10. 1:00 7(690m) 8(3600m)
Mi, 21.10. 0:50 7(690m) 8(3600m)
Mi, 21.10. 0:40 8(720m) 8(3600m)
Mi, 21.10. 0:30 8(750m) 8(3600m) 8(4200m)
Mi, 21.10. 0:00 2(810m) 7(1110m) 8(4200m)
Ortszeit Luftdruck NN (hPa) Tendenz (hPa in 3 Std.)
Di, 20.10. 20:00 1011 - 1,2
Di, 20.10. 14:00 1015 - 2,5
Di, 20.10. 8:00 1019 - 0,9
Di, 20.10. 2:00 1022 - 0,2
Mo, 19.10. 20:00 1021 + 0,2
Mo, 19.10. 14:00 1021 + 0,3
Mo, 19.10. 8:00 1019 + 0,5
Mo, 19.10. 2:00 1018 + 1,0
Ortszeit Luftdruck NN (hPa) Tendenz (hPa in 3 Std.)
Mi, 21.10. 1:30 1010 - 0,7
Mi, 21.10. 1:20 1010 keine Meldung
Mi, 21.10. 1:10 1010 keine Meldung
Mi, 21.10. 1:00 1010 - 0,8
Mi, 21.10. 0:50 1010 keine Meldung
Mi, 21.10. 0:40 1010 keine Meldung
Mi, 21.10. 0:30 1011 - 0,5
Mi, 21.10. 0:00 1011 - 0,2
Ortszeit Schneehöhe (cm)
Di, 20.10. 20:00 0
Di, 20.10. 14:00 0
Di, 20.10. 8:00 0
Di, 20.10. 2:00 0
Mo, 19.10. 20:00 0
Mo, 19.10. 14:00 0
Mo, 19.10. 8:00 0
Mo, 19.10. 2:00 0
Ortszeit Schneehöhe (cm)
Mi, 21.10. 1:30 0
Mi, 21.10. 1:20 0
Mi, 21.10. 1:10 0
Mi, 21.10. 1:00 0
Mi, 21.10. 0:50 0
Mi, 21.10. 0:40 0
Mi, 21.10. 0:30 0
Mi, 21.10. 0:00 0
Link zu dieser Seite / Seite empfehlen

Das Wetter in ...